sensor_id;sensor_type;location;lat;lon;timestamp;P1;durP1;ratioP1;P2;durP2;ratioP2
31692;SDS011;37436;53.230;6.614;2022-10-16T00:00:00;3.22;;;1.33;;
31692;SDS011;37436;53.230;6.614;2022-10-16T00:02:26;12.90;;;2.58;;
31692;SDS011;37436;53.230;6.614;2022-10-16T00:04:52;5.28;;;1.73;;
31692;SDS011;37436;53.230;6.614;2022-10-16T00:07:19;7.68;;;1.48;;
31692;SDS011;37436;53.230;6.614;2022-10-16T00:09:45;12.30;;;1.75;;
31692;SDS011;37436;53.230;6.614;2022-10-16T00:12:11;6.45;;;1.95;;
31692;SDS011;37436;53.230;6.614;2022-10-16T00:14:37;5.40;;;2.35;;
31692;SDS011;37436;53.230;6.614;2022-10-16T00:17:06;7.13;;;2.45;;
31692;SDS011;37436;53.230;6.614;2022-10-16T00:19:32;11.32;;;1.38;;
31692;SDS011;37436;53.230;6.614;2022-10-16T00:21:58;4.85;;;1.63;;
31692;SDS011;37436;53.230;6.614;2022-10-16T00:24:24;10.23;;;1.80;;
31692;SDS011;37436;53.230;6.614;2022-10-16T00:26:50;4.60;;;2.17;;
31692;SDS011;37436;53.230;6.614;2022-10-16T00:29:16;7.47;;;2.00;;
31692;SDS011;37436;53.230;6.614;2022-10-16T00:31:42;6.95;;;2.55;;
31692;SDS011;37436;53.230;6.614;2022-10-16T00:34:09;5.70;;;1.67;;
31692;SDS011;37436;53.230;6.614;2022-10-16T00:36:35;13.00;;;2.10;;
31692;SDS011;37436;53.230;6.614;2022-10-16T00:39:01;2.42;;;1.50;;
31692;SDS011;37436;53.230;6.614;2022-10-16T00:41:27;11.30;;;2.00;;
31692;SDS011;37436;53.230;6.614;2022-10-16T00:43:54;7.00;;;1.75;;
31692;SDS011;37436;53.230;6.614;2022-10-16T00:49:12;7.28;;;1.63;;
31692;SDS011;37436;53.230;6.614;2022-10-16T00:51:42;5.38;;;1.50;;
31692;SDS011;37436;53.230;6.614;2022-10-16T00:54:28;9.85;;;1.83;;
31692;SDS011;37436;53.230;6.614;2022-10-16T00:56:55;3.42;;;1.80;;
31692;SDS011;37436;53.230;6.614;2022-10-16T00:59:28;9.27;;;1.70;;
31692;SDS011;37436;53.230;6.614;2022-10-16T01:01:55;7.00;;;1.65;;
31692;SDS011;37436;53.230;6.614;2022-10-16T01:04:28;11.77;;;1.60;;
31692;SDS011;37436;53.230;6.614;2022-10-16T01:12:13;5.65;;;1.90;;
31692;SDS011;37436;53.230;6.614;2022-10-16T01:15:26;2.92;;;1.50;;
31692;SDS011;37436;53.230;6.614;2022-10-16T01:20:04;4.43;;;1.30;;
31692;SDS011;37436;53.230;6.614;2022-10-16T01:22:38;3.47;;;1.52;;
31692;SDS011;37436;53.230;6.614;2022-10-16T01:25:05;4.60;;;1.05;;
31692;SDS011;37436;53.230;6.614;2022-10-16T01:27:34;6.25;;;1.60;;
31692;SDS011;37436;53.230;6.614;2022-10-16T01:30:04;6.03;;;1.25;;
31692;SDS011;37436;53.230;6.614;2022-10-16T01:32:39;9.88;;;1.55;;
31692;SDS011;37436;53.230;6.614;2022-10-16T01:37:39;7.18;;;1.77;;
31692;SDS011;37436;53.230;6.614;2022-10-16T01:40:10;5.90;;;1.60;;
31692;SDS011;37436;53.230;6.614;2022-10-16T01:42:39;8.65;;;1.25;;
31692;SDS011;37436;53.230;6.614;2022-10-16T01:45:07;9.43;;;1.98;;
31692;SDS011;37436;53.230;6.614;2022-10-16T01:47:36;8.73;;;1.95;;
31692;SDS011;37436;53.230;6.614;2022-10-16T01:50:03;3.67;;;0.80;;
31692;SDS011;37436;53.230;6.614;2022-10-16T01:52:30;11.73;;;1.77;;
31692;SDS011;37436;53.230;6.614;2022-10-16T01:54:57;6.13;;;1.48;;
31692;SDS011;37436;53.230;6.614;2022-10-16T01:57:26;4.60;;;1.60;;
31692;SDS011;37436;53.230;6.614;2022-10-16T01:59:53;4.18;;;1.42;;
31692;SDS011;37436;53.230;6.614;2022-10-16T02:02:20;2.55;;;1.35;;
31692;SDS011;37436;53.230;6.614;2022-10-16T02:04:56;11.32;;;1.60;;
31692;SDS011;37436;53.230;6.614;2022-10-16T02:07:24;7.38;;;2.00;;
31692;SDS011;37436;53.230;6.614;2022-10-16T02:09:50;7.20;;;1.70;;
31692;SDS011;37436;53.230;6.614;2022-10-16T02:12:31;4.10;;;1.55;;
31692;SDS011;37436;53.230;6.614;2022-10-16T02:14:58;2.65;;;1.55;;
31692;SDS011;37436;53.230;6.614;2022-10-16T02:17:24;3.33;;;1.50;;
31692;SDS011;37436;53.230;6.614;2022-10-16T02:19:50;5.68;;;1.50;;
31692;SDS011;37436;53.230;6.614;2022-10-16T02:22:20;6.85;;;2.10;;
31692;SDS011;37436;53.230;6.614;2022-10-16T02:24:55;7.90;;;1.80;;
31692;SDS011;37436;53.230;6.614;2022-10-16T02:27:24;5.32;;;2.13;;
31692;SDS011;37436;53.230;6.614;2022-10-16T02:29:56;4.72;;;1.63;;
31692;SDS011;37436;53.230;6.614;2022-10-16T02:32:26;6.72;;;2.10;;
31692;SDS011;37436;53.230;6.614;2022-10-16T02:34:55;4.40;;;1.95;;
31692;SDS011;37436;53.230;6.614;2022-10-16T02:37:22;8.30;;;1.70;;
31692;SDS011;37436;53.230;6.614;2022-10-16T02:39:48;6.10;;;1.67;;
31692;SDS011;37436;53.230;6.614;2022-10-16T02:42:14;5.45;;;2.08;;
31692;SDS011;37436;53.230;6.614;2022-10-16T02:44:40;8.02;;;1.48;;
31692;SDS011;37436;53.230;6.614;2022-10-16T02:47:06;9.05;;;1.67;;
31692;SDS011;37436;53.230;6.614;2022-10-16T02:49:32;6.57;;;1.55;;
31692;SDS011;37436;53.230;6.614;2022-10-16T02:51:58;5.88;;;2.65;;
31692;SDS011;37436;53.230;6.614;2022-10-16T02:54:24;3.40;;;1.50;;
31692;SDS011;37436;53.230;6.614;2022-10-16T02:56:50;6.72;;;2.22;;
31692;SDS011;37436;53.230;6.614;2022-10-16T02:59:16;6.78;;;1.75;;
31692;SDS011;37436;53.230;6.614;2022-10-16T03:01:43;2.67;;;1.30;;
31692;SDS011;37436;53.230;6.614;2022-10-16T03:04:09;8.93;;;1.83;;
31692;SDS011;37436;53.230;6.614;2022-10-16T03:06:35;3.00;;;1.38;;
31692;SDS011;37436;53.230;6.614;2022-10-16T03:09:01;5.25;;;1.52;;
31692;SDS011;37436;53.230;6.614;2022-10-16T03:11:27;2.53;;;1.17;;
31692;SDS011;37436;53.230;6.614;2022-10-16T03:13:53;7.13;;;1.75;;
31692;SDS011;37436;53.230;6.614;2022-10-16T03:16:19;6.50;;;1.83;;
31692;SDS011;37436;53.230;6.614;2022-10-16T03:18:47;4.00;;;1.42;;
31692;SDS011;37436;53.230;6.614;2022-10-16T03:21:14;4.20;;;1.20;;
31692;SDS011;37436;53.230;6.614;2022-10-16T03:23:40;3.50;;;1.67;;
31692;SDS011;37436;53.230;6.614;2022-10-16T03:26:06;9.80;;;1.70;;
31692;SDS011;37436;53.230;6.614;2022-10-16T03:28:32;3.53;;;1.77;;
31692;SDS011;37436;53.230;6.614;2022-10-16T03:30:58;2.08;;;1.00;;
31692;SDS011;37436;53.230;6.614;2022-10-16T03:33:24;5.32;;;1.65;;
31692;SDS011;37436;53.230;6.614;2022-10-16T03:35:54;7.57;;;1.67;;
31692;SDS011;37436;53.230;6.614;2022-10-16T03:38:20;4.18;;;1.75;;
31692;SDS011;37436;53.230;6.614;2022-10-16T03:40:46;4.55;;;1.30;;
31692;SDS011;37436;53.230;6.614;2022-10-16T03:43:16;4.03;;;1.52;;
31692;SDS011;37436;53.230;6.614;2022-10-16T03:45:42;5.50;;;1.92;;
31692;SDS011;37436;53.230;6.614;2022-10-16T03:48:08;4.15;;;1.58;;
31692;SDS011;37436;53.230;6.614;2022-10-16T03:50:34;5.47;;;1.40;;
31692;SDS011;37436;53.230;6.614;2022-10-16T03:53:00;5.85;;;1.75;;
31692;SDS011;37436;53.230;6.614;2022-10-16T03:55:26;3.72;;;2.25;;
31692;SDS011;37436;53.230;6.614;2022-10-16T03:57:52;2.38;;;1.77;;
31692;SDS011;37436;53.230;6.614;2022-10-16T04:00:18;5.70;;;1.80;;
31692;SDS011;37436;53.230;6.614;2022-10-16T04:02:44;4.88;;;1.15;;
31692;SDS011;37436;53.230;6.614;2022-10-16T04:05:10;3.88;;;1.40;;
31692;SDS011;37436;53.230;6.614;2022-10-16T04:07:36;2.15;;;1.55;;
31692;SDS011;37436;53.230;6.614;2022-10-16T04:10:03;6.80;;;1.60;;
31692;SDS011;37436;53.230;6.614;2022-10-16T04:12:29;5.05;;;1.95;;
31692;SDS011;37436;53.230;6.614;2022-10-16T04:14:55;5.97;;;1.55;;
31692;SDS011;37436;53.230;6.614;2022-10-16T04:17:21;1.50;;;1.25;;
31692;SDS011;37436;53.230;6.614;2022-10-16T04:19:47;4.95;;;1.77;;
31692;SDS011;37436;53.230;6.614;2022-10-16T04:22:13;5.10;;;2.17;;
31692;SDS011;37436;53.230;6.614;2022-10-16T04:24:39;9.68;;;1.90;;
31692;SDS011;37436;53.230;6.614;2022-10-16T04:27:05;8.80;;;2.63;;
31692;SDS011;37436;53.230;6.614;2022-10-16T04:29:31;5.13;;;1.50;;
31692;SDS011;37436;53.230;6.614;2022-10-16T04:31:57;4.00;;;2.00;;
31692;SDS011;37436;53.230;6.614;2022-10-16T04:34:23;4.95;;;2.30;;
31692;SDS011;37436;53.230;6.614;2022-10-16T04:36:50;8.75;;;1.48;;
31692;SDS011;37436;53.230;6.614;2022-10-16T04:39:16;3.30;;;1.45;;
31692;SDS011;37436;53.230;6.614;2022-10-16T04:41:42;5.75;;;1.50;;
31692;SDS011;37436;53.230;6.614;2022-10-16T04:44:08;4.95;;;1.48;;
31692;SDS011;37436;53.230;6.614;2022-10-16T04:46:34;2.45;;;1.25;;
31692;SDS011;37436;53.230;6.614;2022-10-16T04:49:00;4.07;;;1.80;;
31692;SDS011;37436;53.230;6.614;2022-10-16T04:51:26;4.43;;;1.35;;
31692;SDS011;37436;53.230;6.614;2022-10-16T04:53:53;3.55;;;1.60;;
31692;SDS011;37436;53.230;6.614;2022-10-16T04:56:20;4.35;;;1.90;;
31692;SDS011;37436;53.230;6.614;2022-10-16T04:58:46;10.32;;;2.00;;
31692;SDS011;37436;53.230;6.614;2022-10-16T05:01:12;4.03;;;1.92;;
31692;SDS011;37436;53.230;6.614;2022-10-16T05:03:38;4.50;;;1.60;;
31692;SDS011;37436;53.230;6.614;2022-10-16T05:06:05;2.45;;;1.35;;
31692;SDS011;37436;53.230;6.614;2022-10-16T05:08:31;3.72;;;1.55;;
31692;SDS011;37436;53.230;6.614;2022-10-16T05:10:57;4.55;;;1.73;;
31692;SDS011;37436;53.230;6.614;2022-10-16T05:13:23;2.15;;;1.13;;
31692;SDS011;37436;53.230;6.614;2022-10-16T05:15:49;4.45;;;1.77;;
31692;SDS011;37436;53.230;6.614;2022-10-16T05:18:15;3.15;;;0.95;;
31692;SDS011;37436;53.230;6.614;2022-10-16T05:20:41;3.40;;;1.75;;
31692;SDS011;37436;53.230;6.614;2022-10-16T05:23:07;7.28;;;1.73;;
31692;SDS011;37436;53.230;6.614;2022-10-16T05:25:35;8.43;;;2.67;;
31692;SDS011;37436;53.230;6.614;2022-10-16T05:28:01;5.60;;;1.85;;
31692;SDS011;37436;53.230;6.614;2022-10-16T05:30:27;10.48;;;2.13;;
31692;SDS011;37436;53.230;6.614;2022-10-16T05:32:53;4.90;;;1.77;;
31692;SDS011;37436;53.230;6.614;2022-10-16T05:35:20;4.65;;;1.30;;
31692;SDS011;37436;53.230;6.614;2022-10-16T05:37:46;6.03;;;2.17;;
31692;SDS011;37436;53.230;6.614;2022-10-16T05:40:12;6.80;;;2.05;;
31692;SDS011;37436;53.230;6.614;2022-10-16T05:42:39;3.05;;;1.73;;
31692;SDS011;37436;53.230;6.614;2022-10-16T05:45:06;5.68;;;2.08;;
31692;SDS011;37436;53.230;6.614;2022-10-16T05:47:32;8.50;;;1.85;;
31692;SDS011;37436;53.230;6.614;2022-10-16T05:49:58;5.63;;;2.22;;
31692;SDS011;37436;53.230;6.614;2022-10-16T05:52:24;6.30;;;2.13;;
31692;SDS011;37436;53.230;6.614;2022-10-16T05:54:50;11.23;;;2.00;;
31692;SDS011;37436;53.230;6.614;2022-10-16T05:57:16;7.55;;;1.83;;
31692;SDS011;37436;53.230;6.614;2022-10-16T05:59:42;10.77;;;2.15;;
31692;SDS011;37436;53.230;6.614;2022-10-16T06:02:14;5.35;;;2.47;;
31692;SDS011;37436;53.230;6.614;2022-10-16T06:04:40;7.35;;;1.80;;
31692;SDS011;37436;53.230;6.614;2022-10-16T06:07:06;7.10;;;2.13;;
31692;SDS011;37436;53.230;6.614;2022-10-16T06:09:32;6.50;;;1.90;;
31692;SDS011;37436;53.230;6.614;2022-10-16T06:11:58;1.92;;;1.55;;
31692;SDS011;37436;53.230;6.614;2022-10-16T06:14:30;14.23;;;3.20;;
31692;SDS011;37436;53.230;6.614;2022-10-16T06:16:57;16.73;;;3.95;;
31692;SDS011;37436;53.230;6.614;2022-10-16T06:19:25;9.60;;;3.05;;
31692;SDS011;37436;53.230;6.614;2022-10-16T06:21:51;7.15;;;3.03;;
31692;SDS011;37436;53.230;6.614;2022-10-16T06:24:17;7.13;;;1.75;;
31692;SDS011;37436;53.230;6.614;2022-10-16T06:26:43;8.02;;;2.25;;
31692;SDS011;37436;53.230;6.614;2022-10-16T06:29:09;6.00;;;2.53;;
31692;SDS011;37436;53.230;6.614;2022-10-16T06:31:35;3.75;;;2.50;;
31692;SDS011;37436;53.230;6.614;2022-10-16T06:34:01;3.67;;;1.98;;
31692;SDS011;37436;53.230;6.614;2022-10-16T06:36:29;7.35;;;2.78;;
31692;SDS011;37436;53.230;6.614;2022-10-16T06:38:55;2.60;;;1.67;;
31692;SDS011;37436;53.230;6.614;2022-10-16T06:41:22;9.88;;;2.00;;
31692;SDS011;37436;53.230;6.614;2022-10-16T06:43:48;3.60;;;1.90;;
31692;SDS011;37436;53.230;6.614;2022-10-16T06:46:15;5.07;;;2.42;;
31692;SDS011;37436;53.230;6.614;2022-10-16T06:48:42;3.22;;;2.03;;
31692;SDS011;37436;53.230;6.614;2022-10-16T06:51:09;5.05;;;2.45;;
31692;SDS011;37436;53.230;6.614;2022-10-16T06:53:37;7.38;;;2.40;;
31692;SDS011;37436;53.230;6.614;2022-10-16T06:56:10;6.45;;;1.80;;
31692;SDS011;37436;53.230;6.614;2022-10-16T06:58:36;3.38;;;2.17;;
31692;SDS011;37436;53.230;6.614;2022-10-16T07:01:03;8.77;;;2.95;;
31692;SDS011;37436;53.230;6.614;2022-10-16T07:03:29;4.13;;;1.60;;
31692;SDS011;37436;53.230;6.614;2022-10-16T07:05:55;3.47;;;1.58;;
31692;SDS011;37436;53.230;6.614;2022-10-16T07:08:21;17.45;;;4.00;;
31692;SDS011;37436;53.230;6.614;2022-10-16T07:10:47;5.95;;;2.20;;
31692;SDS011;37436;53.230;6.614;2022-10-16T07:13:14;9.43;;;2.63;;
31692;SDS011;37436;53.230;6.614;2022-10-16T07:15:40;3.53;;;1.77;;
31692;SDS011;37436;53.230;6.614;2022-10-16T07:18:14;5.35;;;2.10;;
31692;SDS011;37436;53.230;6.614;2022-10-16T07:20:40;3.20;;;1.65;;
31692;SDS011;37436;53.230;6.614;2022-10-16T07:23:06;5.88;;;1.58;;
31692;SDS011;37436;53.230;6.614;2022-10-16T07:25:32;4.68;;;1.75;;
31692;SDS011;37436;53.230;6.614;2022-10-16T07:27:58;9.32;;;2.08;;
31692;SDS011;37436;53.230;6.614;2022-10-16T07:30:24;5.47;;;2.13;;
31692;SDS011;37436;53.230;6.614;2022-10-16T07:32:57;4.97;;;1.58;;
31692;SDS011;37436;53.230;6.614;2022-10-16T07:35:23;5.80;;;2.38;;
31692;SDS011;37436;53.230;6.614;2022-10-16T07:37:49;5.32;;;1.48;;
31692;SDS011;37436;53.230;6.614;2022-10-16T07:40:15;14.85;;;2.50;;
31692;SDS011;37436;53.230;6.614;2022-10-16T07:42:41;4.30;;;1.58;;
31692;SDS011;37436;53.230;6.614;2022-10-16T07:45:07;6.93;;;1.65;;
31692;SDS011;37436;53.230;6.614;2022-10-16T07:47:33;4.40;;;1.77;;
31692;SDS011;37436;53.230;6.614;2022-10-16T07:49:59;7.07;;;2.53;;
31692;SDS011;37436;53.230;6.614;2022-10-16T07:52:25;10.10;;;2.00;;
31692;SDS011;37436;53.230;6.614;2022-10-16T07:54:51;5.97;;;1.55;;
31692;SDS011;37436;53.230;6.614;2022-10-16T07:57:17;4.55;;;2.33;;
31692;SDS011;37436;53.230;6.614;2022-10-16T07:59:45;3.13;;;1.38;;
31692;SDS011;37436;53.230;6.614;2022-10-16T08:02:11;6.25;;;1.45;;
31692;SDS011;37436;53.230;6.614;2022-10-16T08:04:38;3.53;;;2.00;;
31692;SDS011;37436;53.230;6.614;2022-10-16T08:07:04;7.50;;;1.90;;
31692;SDS011;37436;53.230;6.614;2022-10-16T08:09:30;6.53;;;1.50;;
31692;SDS011;37436;53.230;6.614;2022-10-16T08:11:56;6.78;;;2.33;;
31692;SDS011;37436;53.230;6.614;2022-10-16T08:14:22;4.70;;;1.67;;
31692;SDS011;37436;53.230;6.614;2022-10-16T08:16:48;3.38;;;1.83;;
31692;SDS011;37436;53.230;6.614;2022-10-16T08:19:14;5.50;;;2.50;;
31692;SDS011;37436;53.230;6.614;2022-10-16T08:21:40;4.35;;;1.77;;
31692;SDS011;37436;53.230;6.614;2022-10-16T08:24:06;4.35;;;2.20;;
31692;SDS011;37436;53.230;6.614;2022-10-16T08:26:33;3.05;;;1.42;;
31692;SDS011;37436;53.230;6.614;2022-10-16T08:28:59;5.88;;;2.22;;
31692;SDS011;37436;53.230;6.614;2022-10-16T08:31:25;6.38;;;2.20;;
31692;SDS011;37436;53.230;6.614;2022-10-16T08:33:52;8.50;;;2.08;;
31692;SDS011;37436;53.230;6.614;2022-10-16T08:36:18;5.63;;;1.50;;
31692;SDS011;37436;53.230;6.614;2022-10-16T08:38:47;9.07;;;2.28;;
31692;SDS011;37436;53.230;6.614;2022-10-16T08:41:29;4.47;;;1.90;;
31692;SDS011;37436;53.230;6.614;2022-10-16T08:46:44;7.57;;;2.72;;
31692;SDS011;37436;53.230;6.614;2022-10-16T08:49:13;5.90;;;2.25;;
31692;SDS011;37436;53.230;6.614;2022-10-16T08:51:41;5.47;;;2.28;;
31692;SDS011;37436;53.230;6.614;2022-10-16T08:54:15;5.55;;;1.65;;
31692;SDS011;37436;53.230;6.614;2022-10-16T08:57:17;6.28;;;1.00;;
31692;SDS011;37436;53.230;6.614;2022-10-16T08:59:47;8.32;;;2.15;;
31692;SDS011;37436;53.230;6.614;2022-10-16T09:04:58;8.32;;;1.88;;
31692;SDS011;37436;53.230;6.614;2022-10-16T09:12:37;8.27;;;1.17;;
31692;SDS011;37436;53.230;6.614;2022-10-16T09:22:47;8.30;;;1.38;;
31692;SDS011;37436;53.230;6.614;2022-10-16T09:25:14;4.43;;;0.82;;
31692;SDS011;37436;53.230;6.614;2022-10-16T09:27:40;4.10;;;1.60;;
31692;SDS011;37436;53.230;6.614;2022-10-16T09:30:11;4.55;;;1.52;;
31692;SDS011;37436;53.230;6.614;2022-10-16T09:32:38;4.95;;;1.80;;
31692;SDS011;37436;53.230;6.614;2022-10-16T09:35:09;3.60;;;1.17;;
31692;SDS011;37436;53.230;6.614;2022-10-16T09:37:36;9.23;;;1.38;;
31692;SDS011;37436;53.230;6.614;2022-10-16T09:40:06;9.75;;;2.15;;
31692;SDS011;37436;53.230;6.614;2022-10-16T09:42:34;7.93;;;2.28;;
31692;SDS011;37436;53.230;6.614;2022-10-16T09:45:19;6.65;;;2.05;;
31692;SDS011;37436;53.230;6.614;2022-10-16T09:47:49;10.07;;;2.47;;
31692;SDS011;37436;53.230;6.614;2022-10-16T09:53:15;5.90;;;2.05;;
31692;SDS011;37436;53.230;6.614;2022-10-16T09:55:50;13.50;;;2.00;;
31692;SDS011;37436;53.230;6.614;2022-10-16T09:58:17;10.90;;;2.15;;
31692;SDS011;37436;53.230;6.614;2022-10-16T10:00:48;11.07;;;2.50;;
31692;SDS011;37436;53.230;6.614;2022-10-16T10:03:20;6.93;;;2.03;;
31692;SDS011;37436;53.230;6.614;2022-10-16T10:05:54;8.20;;;2.75;;
31692;SDS011;37436;53.230;6.614;2022-10-16T10:15:09;6.90;;;1.83;;
31692;SDS011;37436;53.230;6.614;2022-10-16T11:05:13;8.95;;;1.88;;
31692;SDS011;37436;53.230;6.614;2022-10-16T11:14:14;12.77;;;2.80;;
31692;SDS011;37436;53.230;6.614;2022-10-16T11:34:50;10.23;;;2.90;;
31692;SDS011;37436;53.230;6.614;2022-10-16T12:42:20;9.50;;;2.28;;
31692;SDS011;37436;53.230;6.614;2022-10-16T12:44:53;14.32;;;2.25;;
31692;SDS011;37436;53.230;6.614;2022-10-16T12:47:34;15.07;;;2.63;;
31692;SDS011;37436;53.230;6.614;2022-10-16T12:50:01;18.48;;;3.85;;
31692;SDS011;37436;53.230;6.614;2022-10-16T12:52:29;24.98;;;3.83;;
31692;SDS011;37436;53.230;6.614;2022-10-16T12:55:00;18.50;;;2.08;;
31692;SDS011;37436;53.230;6.614;2022-10-16T15:12:36;15.35;;;2.75;;
31692;SDS011;37436;53.230;6.614;2022-10-16T15:15:54;12.45;;;2.63;;
31692;SDS011;37436;53.230;6.614;2022-10-16T15:20:22;12.65;;;2.05;;
31692;SDS011;37436;53.230;6.614;2022-10-16T15:22:48;18.08;;;2.72;;
31692;SDS011;37436;53.230;6.614;2022-10-16T15:26:00;6.53;;;1.92;;
31692;SDS011;37436;53.230;6.614;2022-10-16T15:30:26;16.92;;;2.53;;
31692;SDS011;37436;53.230;6.614;2022-10-16T15:32:53;17.42;;;2.63;;
31692;SDS011;37436;53.230;6.614;2022-10-16T15:35:19;7.30;;;2.28;;
31692;SDS011;37436;53.230;6.614;2022-10-16T15:38:01;13.43;;;2.20;;
31692;SDS011;37436;53.230;6.614;2022-10-16T15:40:32;16.73;;;2.72;;
31692;SDS011;37436;53.230;6.614;2022-10-16T15:42:58;8.43;;;2.10;;
31692;SDS011;37436;53.230;6.614;2022-10-16T15:45:27;10.75;;;2.60;;
31692;SDS011;37436;53.230;6.614;2022-10-16T15:47:53;12.15;;;1.88;;
31692;SDS011;37436;53.230;6.614;2022-10-16T15:50:21;11.65;;;2.45;;
31692;SDS011;37436;53.230;6.614;2022-10-16T15:53:01;8.27;;;3.13;;
31692;SDS011;37436;53.230;6.614;2022-10-16T15:55:30;15.70;;;2.58;;
31692;SDS011;37436;53.230;6.614;2022-10-16T15:58:05;11.65;;;2.90;;
31692;SDS011;37436;53.230;6.614;2022-10-16T16:00:31;12.00;;;2.30;;
31692;SDS011;37436;53.230;6.614;2022-10-16T16:02:57;14.77;;;2.63;;
31692;SDS011;37436;53.230;6.614;2022-10-16T16:05:23;16.10;;;3.42;;
31692;SDS011;37436;53.230;6.614;2022-10-16T16:07:52;10.15;;;2.22;;
31692;SDS011;37436;53.230;6.614;2022-10-16T16:10:18;13.68;;;2.90;;
31692;SDS011;37436;53.230;6.614;2022-10-16T16:12:46;14.05;;;2.13;;
31692;SDS011;37436;53.230;6.614;2022-10-16T16:15:17;10.95;;;2.17;;
31692;SDS011;37436;53.230;6.614;2022-10-16T16:17:43;15.45;;;2.55;;
31692;SDS011;37436;53.230;6.614;2022-10-16T16:20:09;11.88;;;2.70;;
31692;SDS011;37436;53.230;6.614;2022-10-16T16:22:35;21.33;;;2.28;;
31692;SDS011;37436;53.230;6.614;2022-10-16T16:25:01;12.40;;;1.92;;
31692;SDS011;37436;53.230;6.614;2022-10-16T16:27:28;9.18;;;2.47;;
31692;SDS011;37436;53.230;6.614;2022-10-16T16:29:55;13.20;;;2.50;;
31692;SDS011;37436;53.230;6.614;2022-10-16T16:32:21;19.38;;;2.45;;
31692;SDS011;37436;53.230;6.614;2022-10-16T16:34:47;10.60;;;2.47;;
31692;SDS011;37436;53.230;6.614;2022-10-16T16:37:13;22.40;;;3.08;;
31692;SDS011;37436;53.230;6.614;2022-10-16T16:39:39;17.20;;;3.38;;
31692;SDS011;37436;53.230;6.614;2022-10-16T16:42:05;22.05;;;2.85;;
31692;SDS011;37436;53.230;6.614;2022-10-16T16:44:32;11.50;;;2.53;;
31692;SDS011;37436;53.230;6.614;2022-10-16T16:47:01;12.93;;;2.92;;
31692;SDS011;37436;53.230;6.614;2022-10-16T16:49:27;16.10;;;2.97;;
31692;SDS011;37436;53.230;6.614;2022-10-16T16:51:53;22.58;;;4.90;;
31692;SDS011;37436;53.230;6.614;2022-10-16T16:54:19;16.23;;;2.88;;
31692;SDS011;37436;53.230;6.614;2022-10-16T16:56:45;14.10;;;2.28;;
31692;SDS011;37436;53.230;6.614;2022-10-16T16:59:12;13.68;;;2.33;;
31692;SDS011;37436;53.230;6.614;2022-10-16T17:01:39;14.55;;;2.63;;
31692;SDS011;37436;53.230;6.614;2022-10-16T17:04:06;13.48;;;3.35;;
31692;SDS011;37436;53.230;6.614;2022-10-16T17:06:32;15.00;;;2.90;;
31692;SDS011;37436;53.230;6.614;2022-10-16T17:09:00;21.65;;;3.38;;
31692;SDS011;37436;53.230;6.614;2022-10-16T17:11:28;16.65;;;2.50;;
31692;SDS011;37436;53.230;6.614;2022-10-16T17:13:57;12.88;;;2.22;;
31692;SDS011;37436;53.230;6.614;2022-10-16T17:16:29;12.00;;;2.55;;
31692;SDS011;37436;53.230;6.614;2022-10-16T17:19:07;14.82;;;2.97;;
31692;SDS011;37436;53.230;6.614;2022-10-16T17:21:34;13.55;;;2.40;;
31692;SDS011;37436;53.230;6.614;2022-10-16T17:24:03;21.77;;;3.22;;
31692;SDS011;37436;53.230;6.614;2022-10-16T17:26:29;15.13;;;3.28;;
31692;SDS011;37436;53.230;6.614;2022-10-16T17:29:04;19.17;;;3.65;;
31692;SDS011;37436;53.230;6.614;2022-10-16T17:31:32;13.75;;;4.78;;
31692;SDS011;37436;53.230;6.614;2022-10-16T17:33:59;16.73;;;4.25;;
31692;SDS011;37436;53.230;6.614;2022-10-16T17:36:25;15.43;;;3.42;;
31692;SDS011;37436;53.230;6.614;2022-10-16T17:38:58;18.55;;;2.90;;
31692;SDS011;37436;53.230;6.614;2022-10-16T17:41:25;20.63;;;3.10;;
31692;SDS011;37436;53.230;6.614;2022-10-16T17:43:55;17.33;;;3.03;;
31692;SDS011;37436;53.230;6.614;2022-10-16T17:46:24;16.33;;;3.20;;
31692;SDS011;37436;53.230;6.614;2022-10-16T17:48:51;14.40;;;2.83;;
31692;SDS011;37436;53.230;6.614;2022-10-16T17:51:22;16.25;;;2.90;;
31692;SDS011;37436;53.230;6.614;2022-10-16T17:53:56;16.23;;;3.60;;
31692;SDS011;37436;53.230;6.614;2022-10-16T17:56:22;17.50;;;3.63;;
31692;SDS011;37436;53.230;6.614;2022-10-16T17:58:50;9.82;;;2.95;;
31692;SDS011;37436;53.230;6.614;2022-10-16T18:01:17;20.35;;;3.35;;
31692;SDS011;37436;53.230;6.614;2022-10-16T18:03:47;13.00;;;3.15;;
31692;SDS011;37436;53.230;6.614;2022-10-16T18:06:21;16.60;;;3.60;;
31692;SDS011;37436;53.230;6.614;2022-10-16T18:08:48;19.75;;;3.40;;
31692;SDS011;37436;53.230;6.614;2022-10-16T18:11:14;20.08;;;3.10;;
31692;SDS011;37436;53.230;6.614;2022-10-16T18:13:40;12.35;;;3.42;;
31692;SDS011;37436;53.230;6.614;2022-10-16T18:16:10;14.68;;;2.80;;
31692;SDS011;37436;53.230;6.614;2022-10-16T18:18:37;26.65;;;3.58;;
31692;SDS011;37436;53.230;6.614;2022-10-16T18:21:05;20.80;;;4.38;;
31692;SDS011;37436;53.230;6.614;2022-10-16T18:23:32;10.35;;;2.85;;
31692;SDS011;37436;53.230;6.614;2022-10-16T18:25:58;21.30;;;2.97;;
31692;SDS011;37436;53.230;6.614;2022-10-16T18:28:24;11.48;;;3.20;;
31692;SDS011;37436;53.230;6.614;2022-10-16T18:30:54;14.52;;;3.65;;
31692;SDS011;37436;53.230;6.614;2022-10-16T18:33:21;15.93;;;3.83;;
31692;SDS011;37436;53.230;6.614;2022-10-16T18:35:50;17.25;;;4.40;;
31692;SDS011;37436;53.230;6.614;2022-10-16T18:38:17;16.42;;;3.90;;
31692;SDS011;37436;53.230;6.614;2022-10-16T18:40:43;16.05;;;3.67;;
31692;SDS011;37436;53.230;6.614;2022-10-16T18:43:09;18.88;;;3.67;;
31692;SDS011;37436;53.230;6.614;2022-10-16T18:45:35;12.15;;;3.05;;
31692;SDS011;37436;53.230;6.614;2022-10-16T18:48:01;15.95;;;4.13;;
31692;SDS011;37436;53.230;6.614;2022-10-16T18:50:28;15.63;;;3.63;;
31692;SDS011;37436;53.230;6.614;2022-10-16T18:52:54;17.13;;;3.53;;
31692;SDS011;37436;53.230;6.614;2022-10-16T18:55:20;19.67;;;3.65;;
31692;SDS011;37436;53.230;6.614;2022-10-16T18:57:46;17.17;;;3.38;;
31692;SDS011;37436;53.230;6.614;2022-10-16T19:00:13;8.73;;;3.38;;
31692;SDS011;37436;53.230;6.614;2022-10-16T19:02:39;14.88;;;5.20;;
31692;SDS011;37436;53.230;6.614;2022-10-16T19:05:05;19.48;;;3.45;;
31692;SDS011;37436;53.230;6.614;2022-10-16T19:07:33;15.75;;;3.60;;
31692;SDS011;37436;53.230;6.614;2022-10-16T19:09:59;17.80;;;4.43;;
31692;SDS011;37436;53.230;6.614;2022-10-16T19:12:25;15.00;;;3.83;;
31692;SDS011;37436;53.230;6.614;2022-10-16T19:14:51;23.05;;;4.60;;
31692;SDS011;37436;53.230;6.614;2022-10-16T19:17:17;24.83;;;4.10;;
31692;SDS011;37436;53.230;6.614;2022-10-16T19:19:43;12.45;;;4.25;;
31692;SDS011;37436;53.230;6.614;2022-10-16T19:22:09;13.40;;;4.00;;
31692;SDS011;37436;53.230;6.614;2022-10-16T19:24:41;10.27;;;3.53;;
31692;SDS011;37436;53.230;6.614;2022-10-16T19:27:08;17.98;;;4.07;;
31692;SDS011;37436;53.230;6.614;2022-10-16T19:29:35;18.30;;;5.57;;
31692;SDS011;37436;53.230;6.614;2022-10-16T19:32:01;23.15;;;4.55;;
31692;SDS011;37436;53.230;6.614;2022-10-16T19:34:28;19.63;;;4.57;;
31692;SDS011;37436;53.230;6.614;2022-10-16T19:36:54;12.43;;;3.83;;
31692;SDS011;37436;53.230;6.614;2022-10-16T19:39:20;27.55;;;4.13;;
31692;SDS011;37436;53.230;6.614;2022-10-16T19:41:47;15.45;;;4.15;;
31692;SDS011;37436;53.230;6.614;2022-10-16T19:44:14;13.18;;;3.63;;
31692;SDS011;37436;53.230;6.614;2022-10-16T19:46:49;16.67;;;4.45;;
31692;SDS011;37436;53.230;6.614;2022-10-16T19:49:16;20.13;;;3.85;;
31692;SDS011;37436;53.230;6.614;2022-10-16T19:51:45;15.70;;;3.40;;
31692;SDS011;37436;53.230;6.614;2022-10-16T19:54:12;13.35;;;3.65;;
31692;SDS011;37436;53.230;6.614;2022-10-16T19:56:39;15.50;;;4.00;;
31692;SDS011;37436;53.230;6.614;2022-10-16T19:59:06;12.25;;;4.32;;
31692;SDS011;37436;53.230;6.614;2022-10-16T20:01:33;12.45;;;4.68;;
31692;SDS011;37436;53.230;6.614;2022-10-16T20:03:59;18.02;;;4.90;;